Time;durP1;ratioP1;P1;durP2;ratioP2;P2;SDS_P1;SDS_P2;PMS_P1;PMS_P2;Temp;Humidity;BMP_temperature;BMP_pressure;BME280_temperature;BME280_humidity;BME280_pressure;Samples;Min_cycle;Max_cycle;Signal;HPM_P1;HPM_P2
2021/12/19 00:00:58;;;;;;;21.58;11.27;;;;;;;;;;5029592;28;20067;-71
2021/12/19 00:03:47;;;;;;;21.30;11.90;;;;;;;;;;5029212;28;20029;-71
2021/12/19 00:08:57;;;;;;;20.48;11.30;;;;;;;;;;5029684;28;20072;-73
2021/12/19 00:11:26;;;;;;;21.65;11.63;;;;;;;;;;5029280;28;20073;-74
2021/12/19 00:13:52;;;;;;;22.50;11.23;;;;;;;;;;5033031;28;20400;-67
2021/12/19 00:16:18;;;;;;;18.63;9.85;;;;;;;;;;5032940;28;20056;-73
2021/12/19 00:18:46;;;;;;;18.70;10.50;;;;;;;;;;5032860;28;20033;-68
2021/12/19 00:21:14;;;;;;;20.30;10.35;;;;;;;;;;5033003;28;20448;-68
2021/12/19 00:23:40;;;;;;;21.92;10.15;;;;;;;;;;5031267;28;20025;-68
2021/12/19 00:26:06;;;;;;;16.80;9.70;;;;;;;;;;5032863;28;20029;-72
2021/12/19 00:28:32;;;;;;;17.58;10.20;;;;;;;;;;5032853;28;20025;-66
2021/12/19 00:30:57;;;;;;;17.23;9.15;;;;;;;;;;5032759;28;20105;-65
2021/12/19 00:33:23;;;;;;;15.40;9.05;;;;;;;;;;5032260;28;20400;-67
2021/12/19 00:35:48;;;;;;;16.00;9.15;;;;;;;;;;5032707;28;20083;-68
2021/12/19 00:38:14;;;;;;;17.88;8.60;;;;;;;;;;5032632;28;20021;-66
2021/12/19 00:40:39;;;;;;;13.73;8.50;;;;;;;;;;5032386;28;20021;-67
2021/12/19 00:43:09;;;;;;;16.15;8.48;;;;;;;;;;5032438;28;20100;-67
2021/12/19 00:45:37;;;;;;;15.77;7.75;;;;;;;;;;5032475;28;20496;-68
2021/12/19 00:48:05;;;;;;;15.68;7.57;;;;;;;;;;5032463;28;20053;-67
2021/12/19 00:50:32;;;;;;;13.48;6.97;;;;;;;;;;5032273;28;20032;-66
2021/12/19 00:52:58;;;;;;;16.13;7.70;;;;;;;;;;5032249;28;20028;-69
2021/12/19 00:55:26;;;;;;;14.55;7.82;;;;;;;;;;5032355;28;20037;-69
2021/12/19 00:57:51;;;;;;;17.52;8.20;;;;;;;;;;5032309;28;20022;-68
2021/12/19 01:00:19;;;;;;;14.68;7.13;;;;;;;;;;5032338;28;20403;-70
2021/12/19 01:02:45;;;;;;;12.65;7.05;;;;;;;;;;5031860;28;20071;-69
2021/12/19 01:05:12;;;;;;;12.63;6.43;;;;;;;;;;5031913;28;20397;-68
2021/12/19 01:07:37;;;;;;;11.75;6.20;;;;;;;;;;5032092;28;20026;-66
2021/12/19 01:10:05;;;;;;;12.20;6.70;;;;;;;;;;5031866;28;20022;-68
2021/12/19 01:12:32;;;;;;;11.15;6.00;;;;;;;;;;5031624;28;20523;-74
2021/12/19 01:14:57;;;;;;;11.77;6.20;;;;;;;;;;5032213;28;20045;-68
2021/12/19 01:17:23;;;;;;;10.80;5.93;;;;;;;;;;5031894;28;20021;-66
2021/12/19 01:19:48;;;;;;;11.18;5.95;;;;;;;;;;5031681;28;20086;-65
2021/12/19 01:22:14;;;;;;;10.98;6.05;;;;;;;;;;5031503;28;20026;-67
2021/12/19 01:24:39;;;;;;;10.18;5.55;;;;;;;;;;5031612;28;20108;-67
2021/12/19 01:27:06;;;;;;;8.80;5.43;;;;;;;;;;5031618;28;20067;-67
2021/12/19 01:29:32;;;;;;;10.18;5.70;;;;;;;;;;5031969;28;20053;-69
2021/12/19 01:31:57;;;;;;;13.10;5.63;;;;;;;;;;5031822;28;20049;-67
2021/12/19 01:34:23;;;;;;;10.82;5.80;;;;;;;;;;5031450;28;20550;-66
2021/12/19 01:36:49;;;;;;;11.38;5.85;;;;;;;;;;5031533;28;20036;-66
2021/12/19 01:39:15;;;;;;;13.85;6.10;;;;;;;;;;5031514;28;20051;-66
2021/12/19 01:41:52;;;;;;;10.48;5.88;;;;;;;;;;5031203;28;20057;-66
2021/12/19 01:44:17;;;;;;;13.20;5.55;;;;;;;;;;5031018;28;20025;-68
2021/12/19 01:46:44;;;;;;;12.10;5.60;;;;;;;;;;5031475;28;20128;-68
2021/12/19 01:49:11;;;;;;;11.63;5.32;;;;;;;;;;5031365;28;20048;-66
2021/12/19 01:51:37;;;;;;;7.97;5.03;;;;;;;;;;5031321;28;20357;-65
2021/12/19 01:54:03;;;;;;;8.60;5.22;;;;;;;;;;5030663;28;20160;-67
2021/12/19 01:56:30;;;;;;;9.25;5.05;;;;;;;;;;5031031;28;20037;-67
2021/12/19 01:58:55;;;;;;;9.52;5.70;;;;;;;;;;5031163;28;20029;-71
2021/12/19 02:01:21;;;;;;;9.18;5.20;;;;;;;;;;5030911;28;20104;-68
2021/12/19 02:03:46;;;;;;;11.05;5.45;;;;;;;;;;5030861;28;20029;-68
2021/12/19 02:06:12;;;;;;;10.52;5.63;;;;;;;;;;5030942;28;20029;-65
2021/12/19 02:08:37;;;;;;;8.05;4.75;;;;;;;;;;5030985;28;20071;-64
2021/12/19 02:11:03;;;;;;;10.07;5.35;;;;;;;;;;5030823;28;20037;-68
2021/12/19 02:13:28;;;;;;;8.57;4.82;;;;;;;;;;5030334;28;20078;-73
2021/12/19 02:15:54;;;;;;;8.20;4.50;;;;;;;;;;5030861;28;20042;-68
2021/12/19 02:18:21;;;;;;;10.20;4.47;;;;;;;;;;5030693;28;20029;-69
2021/12/19 02:20:50;;;;;;;9.40;5.00;;;;;;;;;;5030673;28;20032;-65
2021/12/19 02:23:18;;;;;;;8.52;4.43;;;;;;;;;;5030554;28;20043;-68
2021/12/19 02:25:44;;;;;;;6.93;4.55;;;;;;;;;;5030471;28;20029;-68
2021/12/19 02:28:10;;;;;;;8.13;4.20;;;;;;;;;;5030677;28;20032;-66
2021/12/19 02:30:36;;;;;;;8.93;4.72;;;;;;;;;;5030398;28;20025;-67
2021/12/19 02:33:05;;;;;;;8.02;4.65;;;;;;;;;;5030168;28;20033;-66
2021/12/19 02:35:33;;;;;;;9.73;4.50;;;;;;;;;;5030140;28;20037;-68
2021/12/19 02:48:10;;;;;;;8.45;3.92;;;;;;;;;;5030465;28;20033;-67
2021/12/19 02:48:56;;;;;;;7.00;4.00;;;;;;;;;;5030605;28;20103;-65
2021/12/19 02:51:22;;;;;;;7.43;3.60;;;;;;;;;;5030185;28;20018;-68
2021/12/19 02:53:48;;;;;;;8.00;3.85;;;;;;;;;;5029803;28;20108;-70
2021/12/19 02:56:13;;;;;;;6.65;3.72;;;;;;;;;;5030204;28;20076;-70
2021/12/19 02:58:41;;;;;;;7.57;3.78;;;;;;;;;;5030419;28;20080;-71
2021/12/19 03:01:14;;;;;;;7.75;4.00;;;;;;;;;;5030131;28;20021;-76
2021/12/19 03:03:40;;;;;;;9.32;4.07;;;;;;;;;;5029793;28;20021;-68
2021/12/19 03:06:05;;;;;;;6.05;3.55;;;;;;;;;;5029844;28;20088;-67
2021/12/19 03:08:31;;;;;;;6.55;3.67;;;;;;;;;;5030077;28;20022;-69
2021/12/19 03:19:10;;;;;;;5.93;3.53;;;;;;;;;;5030213;28;20124;-68
2021/12/19 03:21:35;;;;;;;6.20;3.60;;;;;;;;;;5030155;28;20453;-66
2021/12/19 03:24:01;;;;;;;6.72;3.70;;;;;;;;;;5029481;28;20507;-69
2021/12/19 03:26:26;;;;;;;6.40;3.63;;;;;;;;;;5029857;28;20029;-66
2021/12/19 03:28:52;;;;;;;5.95;3.63;;;;;;;;;;5029937;28;20060;-68
2021/12/19 03:31:17;;;;;;;5.90;3.38;;;;;;;;;;5030037;28;20086;-69
2021/12/19 03:33:43;;;;;;;6.65;3.67;;;;;;;;;;5029648;28;20067;-67
2021/12/19 03:36:08;;;;;;;7.82;3.83;;;;;;;;;;5029760;28;20404;-67
2021/12/19 03:38:39;;;;;;;6.18;3.42;;;;;;;;;;5029949;28;20044;-66
2021/12/19 03:41:23;;;;;;;6.38;3.42;;;;;;;;;;5029408;28;20401;-65
2021/12/19 03:43:49;;;;;;;7.50;3.78;;;;;;;;;;5029585;28;20439;-68
2021/12/19 03:46:15;;;;;;;6.47;3.33;;;;;;;;;;5029720;28;20076;-66
2021/12/19 03:48:41;;;;;;;6.80;3.83;;;;;;;;;;5033483;28;20025;-77
2021/12/19 03:51:07;;;;;;;6.55;3.53;;;;;;;;;;5033556;28;20390;-69
2021/12/19 03:53:33;;;;;;;6.60;3.55;;;;;;;;;;5033267;28;20489;-67
2021/12/19 03:55:58;;;;;;;7.60;3.60;;;;;;;;;;5033358;28;20033;-65
2021/12/19 03:58:24;;;;;;;5.38;3.40;;;;;;;;;;5033229;28;20029;-67
2021/12/19 04:00:50;;;;;;;6.65;3.50;;;;;;;;;;5033233;28;20033;-66
2021/12/19 04:03:20;;;;;;;6.60;3.60;;;;;;;;;;5033159;28;20037;-67
2021/12/19 04:05:51;;;;;;;5.90;3.80;;;;;;;;;;5033233;28;20029;-66
2021/12/19 04:08:18;;;;;;;6.28;3.25;;;;;;;;;;5033209;28;20292;-67
2021/12/19 04:10:43;;;;;;;5.90;3.33;;;;;;;;;;5032975;28;20021;-66
2021/12/19 04:13:09;;;;;;;6.00;3.40;;;;;;;;;;5032825;28;20048;-67
2021/12/19 04:15:35;;;;;;;7.28;3.65;;;;;;;;;;5033153;28;20026;-66
2021/12/19 04:18:01;;;;;;;5.43;3.05;;;;;;;;;;5033059;28;20021;-66
2021/12/19 04:20:26;;;;;;;5.18;3.20;;;;;;;;;;5033070;28;20024;-65
2021/12/19 04:22:52;;;;;;;5.30;3.30;;;;;;;;;;5032934;28;20021;-66
2021/12/19 04:25:18;;;;;;;5.25;3.10;;;;;;;;;;5032356;28;20079;-72
2021/12/19 04:27:45;;;;;;;5.45;3.20;;;;;;;;;;5032838;28;20029;-71
2021/12/19 04:30:15;;;;;;;4.22;2.75;;;;;;;;;;5032693;28;20033;-67
2021/12/19 04:32:44;;;;;;;;;;;;;;;;;;5033470;28;20017;-69
2021/12/19 04:35:10;;;;;;;4.68;2.65;;;;;;;;;;5032527;28;19992;-68
2021/12/19 04:40:27;;;;;;;6.20;3.38;;;;;;;;;;5032905;28;20075;-73
2021/12/19 05:04:12;;;;;;;7.18;3.20;;;;;;;;;;5032130;28;20507;-69
2021/12/19 05:14:40;;;;;;;5.35;3.00;;;;;;;;;;5031929;28;20040;-76
2021/12/19 05:17:09;;;;;;;6.85;3.25;;;;;;;;;;5031786;28;20080;-75
2021/12/19 05:19:50;;;;;;;5.90;3.58;;;;;;;;;;5031983;28;20033;-73
2021/12/19 05:22:17;;;;;;;5.00;3.03;;;;;;;;;;5031754;28;20022;-75
2021/12/19 05:24:51;;;;;;;6.88;3.22;;;;;;;;;;5031463;28;20033;-77
2021/12/19 05:27:17;;;;;;;6.15;3.28;;;;;;;;;;5031704;28;20493;-76
2021/12/19 05:29:42;;;;;;;4.88;3.03;;;;;;;;;;5031677;28;20099;-77
2021/12/19 05:32:08;;;;;;;8.07;3.63;;;;;;;;;;5031730;28;20021;-74
2021/12/19 05:34:36;;;;;;;8.65;3.58;;;;;;;;;;5031346;28;20041;-76
2021/12/19 05:45:15;;;;;;;6.35;3.60;;;;;;;;;;5031374;28;20670;-68
2021/12/19 05:47:48;;;;;;;6.43;3.42;;;;;;;;;;5031385;28;20579;-75
2021/12/19 05:50:17;;;;;;;6.40;3.58;;;;;;;;;;5031389;28;20034;-77
2021/12/19 05:52:45;;;;;;;7.10;3.63;;;;;;;;;;5031294;28;20033;-75
2021/12/19 05:55:10;;;;;;;5.93;3.33;;;;;;;;;;5031084;28;20075;-77
2021/12/19 05:57:36;;;;;;;6.85;3.60;;;;;;;;;;5031287;28;20025;-74
2021/12/19 06:00:09;;;;;;;7.53;3.63;;;;;;;;;;5031302;28;20622;-78
2021/12/19 06:02:34;;;;;;;6.82;3.80;;;;;;;;;;5030048;28;20029;-77
2021/12/19 06:05:00;;;;;;;6.25;3.58;;;;;;;;;;5030742;28;20505;-76
2021/12/19 06:07:25;;;;;;;7.75;4.13;;;;;;;;;;5031276;28;20108;-77
2021/12/19 06:09:51;;;;;;;6.68;4.15;;;;;;;;;;5030023;28;20488;-70
2021/12/19 06:12:16;;;;;;;9.30;4.03;;;;;;;;;;5030784;28;20056;-70
2021/12/19 06:14:42;;;;;;;7.97;3.80;;;;;;;;;;5030618;28;20370;-78
2021/12/19 06:17:07;;;;;;;8.95;4.00;;;;;;;;;;5030974;28;20030;-76
2021/12/19 06:19:36;;;;;;;6.65;3.53;;;;;;;;;;5030612;28;20041;-68
2021/12/19 06:22:04;;;;;;;8.93;3.85;;;;;;;;;;5030602;28;20116;-69
2021/12/19 06:24:30;;;;;;;9.40;3.50;;;;;;;;;;5030143;28;20028;-67
2021/12/19 06:26:55;;;;;;;10.00;4.20;;;;;;;;;;5030389;28;20032;-65
2021/12/19 06:29:21;;;;;;;7.45;3.60;;;;;;;;;;5030442;28;20029;-76
2021/12/19 06:31:46;;;;;;;8.82;3.65;;;;;;;;;;5030696;28;20037;-73
2021/12/19 06:34:11;;;;;;;5.43;3.38;;;;;;;;;;5028975;28;20055;-69
2021/12/19 06:36:37;;;;;;;6.53;3.38;;;;;;;;;;5030475;28;20488;-71
2021/12/19 06:39:03;;;;;;;8.85;3.50;;;;;;;;;;5030429;28;20145;-67
2021/12/19 06:41:29;;;;;;;6.57;3.53;;;;;;;;;;5030332;28;20087;-66
2021/12/19 06:43:55;;;;;;;7.38;3.78;;;;;;;;;;5030272;28;20385;-66
2021/12/19 06:46:20;;;;;;;6.43;3.60;;;;;;;;;;5030051;28;20033;-69
2021/12/19 06:48:45;;;;;;;7.00;3.60;;;;;;;;;;5030329;28;20086;-76
2021/12/19 06:51:11;;;;;;;6.32;3.65;;;;;;;;;;5030375;28;20025;-70
2021/12/19 06:53:36;;;;;;;6.13;3.38;;;;;;;;;;5030402;28;20119;-74
2021/12/19 06:56:02;;;;;;;7.35;3.72;;;;;;;;;;5029831;28;20043;-76
2021/12/19 06:58:28;;;;;;;6.25;3.33;;;;;;;;;;5030202;28;20101;-76
2021/12/19 07:00:53;;;;;;;6.47;3.47;;;;;;;;;;5030125;28;20033;-76
2021/12/19 07:03:23;;;;;;;5.88;2.90;;;;;;;;;;5029974;28;20076;-77
2021/12/19 07:05:49;;;;;;;5.70;3.28;;;;;;;;;;5029678;28;20079;-78
2021/12/19 07:08:14;;;;;;;5.75;3.30;;;;;;;;;;5030217;28;20580;-76
2021/12/19 07:10:40;;;;;;;6.32;3.55;;;;;;;;;;5029950;28;20100;-76
2021/12/19 07:13:05;;;;;;;5.93;3.30;;;;;;;;;;5030000;28;20052;-77
2021/12/19 07:15:31;;;;;;;5.90;3.25;;;;;;;;;;5029683;28;20051;-76
2021/12/19 07:18:01;;;;;;;6.55;3.47;;;;;;;;;;5012047;28;20030;-73
2021/12/19 07:20:27;;;;;;;6.65;3.50;;;;;;;;;;5030222;28;20052;-75
2021/12/19 07:22:53;;;;;;;6.22;3.65;;;;;;;;;;5034027;28;20057;-75
2021/12/19 07:25:18;;;;;;;7.38;3.65;;;;;;;;;;5033787;28;20032;-75
2021/12/19 07:27:43;;;;;;;8.32;3.95;;;;;;;;;;5016053;28;20036;-66
2021/12/19 07:30:10;;;;;;;7.88;3.90;;;;;;;;;;5033960;28;20055;-65
2021/12/19 07:32:37;;;;;;;10.70;4.22;;;;;;;;;;5033841;28;20041;-69
2021/12/19 07:35:06;;;;;;;10.85;4.00;;;;;;;;;;5033538;28;20033;-74
2021/12/19 07:37:32;;;;;;;8.00;4.30;;;;;;;;;;5033864;28;20108;-78
2021/12/19 07:40:10;;;;;;;8.93;4.10;;;;;;;;;;5033684;28;20113;-76
2021/12/19 07:42:35;;;;;;;7.50;4.20;;;;;;;;;;5033778;28;20101;-75
2021/12/19 07:45:01;;;;;;;8.88;4.78;;;;;;;;;;5015458;28;20120;-77
2021/12/19 07:47:26;;;;;;;10.90;4.60;;;;;;;;;;5033505;28;20036;-75
2021/12/19 07:49:51;;;;;;;9.00;4.57;;;;;;;;;;5033569;28;20548;-77
2021/12/19 07:52:17;;;;;;;11.18;5.53;;;;;;;;;;5033490;28;20562;-77
2021/12/19 07:54:42;;;;;;;11.60;5.15;;;;;;;;;;5033189;28;20040;-76
2021/12/19 07:57:08;;;;;;;10.60;4.97;;;;;;;;;;5033261;28;20029;-74
2021/12/19 07:59:33;;;;;;;7.43;4.43;;;;;;;;;;5033335;28;20021;-77
2021/12/19 08:01:59;;;;;;;10.15;4.60;;;;;;;;;;5033389;28;20112;-78
2021/12/19 08:04:25;;;;;;;9.88;4.88;;;;;;;;;;5033235;28;20506;-74
2021/12/19 08:06:50;;;;;;;8.13;4.38;;;;;;;;;;5032844;28;20586;-73
2021/12/19 08:09:24;;;;;;;11.25;4.68;;;;;;;;;;5033205;28;20037;-77
2021/12/19 08:11:51;;;;;;;7.82;4.00;;;;;;;;;;5032734;28;20147;-76
2021/12/19 08:14:17;;;;;;;7.22;4.13;;;;;;;;;;5033178;28;20049;-76
2021/12/19 08:16:46;;;;;;;9.27;4.80;;;;;;;;;;5032952;28;20115;-77
2021/12/19 08:19:12;;;;;;;8.07;4.72;;;;;;;;;;5033126;28;20029;-76
2021/12/19 08:21:37;;;;;;;11.63;4.90;;;;;;;;;;5033001;28;20083;-75
2021/12/19 08:24:09;;;;;;;8.75;5.10;;;;;;;;;;5032517;28;20033;-73
2021/12/19 08:26:35;;;;;;;8.00;5.10;;;;;;;;;;5032294;28;20033;-73
2021/12/19 08:29:00;;;;;;;8.80;4.60;;;;;;;;;;5032790;28;20036;-71
2021/12/19 08:31:26;;;;;;;9.43;4.80;;;;;;;;;;5032864;28;20060;-76
2021/12/19 08:33:53;;;;;;;6.63;4.15;;;;;;;;;;5032167;28;20569;-78
2021/12/19 08:36:19;;;;;;;6.82;4.22;;;;;;;;;;5032568;28;20036;-75
2021/12/19 08:38:46;;;;;;;7.57;4.05;;;;;;;;;;5032535;28;20033;-66
2021/12/19 08:41:11;;;;;;;7.70;4.13;;;;;;;;;;5032364;28;20048;-70
2021/12/19 08:43:37;;;;;;;8.38;4.75;;;;;;;;;;5032585;28;20530;-67
2021/12/19 08:46:02;;;;;;;7.35;4.22;;;;;;;;;;5032392;28;20466;-66
2021/12/19 08:48:27;;;;;;;11.27;4.57;;;;;;;;;;5032487;28;20039;-70
2021/12/19 08:50:53;;;;;;;11.30;4.53;;;;;;;;;;5032565;28;20112;-66
2021/12/19 08:53:19;;;;;;;9.88;5.13;;;;;;;;;;5032538;28;20476;-66
2021/12/19 08:55:45;;;;;;;9.40;5.38;;;;;;;;;;5031671;28;20056;-69
2021/12/19 08:58:11;;;;;;;11.02;6.18;;;;;;;;;;5032400;28;20702;-68
2021/12/19 09:00:37;;;;;;;9.90;5.53;;;;;;;;;;5034593;28;20029;-70
2021/12/19 09:03:05;;;;;;;9.30;5.30;;;;;;;;;;5035770;28;20401;-65
2021/12/19 09:05:31;;;;;;;7.63;4.88;;;;;;;;;;5042940;28;20591;-68
2021/12/19 09:07:57;;;;;;;9.70;4.40;;;;;;;;;;5037600;28;20574;-69
2021/12/19 09:10:23;;;;;;;8.50;4.90;;;;;;;;;;5032007;28;20101;-68
2021/12/19 09:12:49;;;;;;;9.05;5.40;;;;;;;;;;5030782;28;20075;-69
2021/12/19 09:15:14;;;;;;;9.70;5.43;;;;;;;;;;5031513;28;20044;-70
2021/12/19 09:17:40;;;;;;;13.15;5.35;;;;;;;;;;5031829;28;20025;-69
2021/12/19 09:20:07;;;;;;;11.38;5.10;;;;;;;;;;5031857;28;20026;-68
2021/12/19 09:22:33;;;;;;;9.25;5.40;;;;;;;;;;5031667;28;20492;-67
2021/12/19 09:24:58;;;;;;;11.93;6.30;;;;;;;;;;5031539;28;20126;-70
2021/12/19 09:27:24;;;;;;;11.63;5.88;;;;;;;;;;5031411;28;20044;-71
2021/12/19 09:29:49;;;;;;;12.55;5.45;;;;;;;;;;5031602;28;20028;-70
2021/12/19 09:32:15;;;;;;;8.95;5.07;;;;;;;;;;5037310;28;20025;-67
2021/12/19 09:34:41;;;;;;;10.68;5.20;;;;;;;;;;5033292;28;20029;-67
2021/12/19 09:37:06;;;;;;;9.02;4.30;;;;;;;;;;5031202;28;20035;-67
2021/12/19 09:39:32;;;;;;;7.05;3.83;;;;;;;;;;5031467;28;20036;-67
2021/12/19 09:42:02;;;;;;;8.05;4.47;;;;;;;;;;5031246;28;20030;-67
2021/12/19 09:44:28;;;;;;;27.63;12.90;;;;;;;;;;5030312;28;20030;-69
2021/12/19 09:46:53;;;;;;;12.07;6.82;;;;;;;;;;5030776;28;20107;-68
2021/12/19 09:49:20;;;;;;;10.57;4.82;;;;;;;;;;5031140;28;20472;-67
2021/12/19 09:51:48;;;;;;;8.32;3.72;;;;;;;;;;5031028;28;20509;-67
2021/12/19 09:54:14;;;;;;;12.98;5.60;;;;;;;;;;5031074;28;20091;-68
2021/12/19 09:56:42;;;;;;;9.38;5.82;;;;;;;;;;5030490;28;20045;-68
2021/12/19 09:59:13;;;;;;;9.60;4.60;;;;;;;;;;5031073;28;20604;-68
2021/12/19 10:01:39;;;;;;;10.48;6.05;;;;;;;;;;5030776;28;20026;-67
2021/12/19 10:04:36;;;;;;;5.78;3.30;;;;;;;;;;5030709;28;20028;-68
2021/12/19 10:07:28;;;;;;;6.78;3.58;;;;;;;;;;5017899;28;20029;-68
2021/12/19 10:09:59;;;;;;;6.25;3.28;;;;;;;;;;5028930;28;20051;-67
2021/12/19 10:14:57;;;;;;;6.03;3.38;;;;;;;;;;4989783;28;20121;-70
2021/12/19 10:17:23;;;;;;;5.97;3.00;;;;;;;;;;4989735;28;20117;-67
2021/12/19 10:19:50;;;;;;;5.95;2.97;;;;;;;;;;4989496;28;20045;-69
2021/12/19 10:22:37;;;;;;;6.07;3.30;;;;;;;;;;4989618;28;20027;-72
2021/12/19 10:25:17;;;;;;;5.13;3.15;;;;;;;;;;4989771;28;20030;-70
2021/12/19 10:27:45;;;;;;;5.80;3.15;;;;;;;;;;4991102;28;20109;-68
2021/12/19 10:30:12;;;;;;;7.53;3.13;;;;;;;;;;4990901;28;20034;-68
2021/12/19 10:33:11;;;;;;;7.55;3.47;;;;;;;;;;4991209;28;20026;-69
2021/12/19 10:35:41;;;;;;;5.40;3.25;;;;;;;;;;4982687;28;20125;-69
2021/12/19 10:38:18;;;;;;;6.15;3.50;;;;;;;;;;4990520;28;20026;-69
2021/12/19 10:40:48;;;;;;;5.70;3.10;;;;;;;;;;4989506;28;20375;-68
2021/12/19 10:43:16;;;;;;;6.10;3.83;;;;;;;;;;4990771;28;20039;-68
2021/12/19 10:45:51;;;;;;;5.78;3.40;;;;;;;;;;4990765;28;20030;-71
2021/12/19 10:48:27;;;;;;;5.35;3.17;;;;;;;;;;4991180;28;20033;-67
2021/12/19 10:51:15;;;;;;;7.68;3.25;;;;;;;;;;4990914;28;20481;-68
2021/12/19 10:53:45;;;;;;;6.05;3.13;;;;;;;;;;4990771;28;20041;-69
2021/12/19 10:56:17;;;;;;;6.05;3.40;;;;;;;;;;4990203;28;20026;-69
2021/12/19 10:58:44;;;;;;;7.07;3.40;;;;;;;;;;4990778;28;20510;-68
2021/12/19 11:01:14;;;;;;;6.55;3.10;;;;;;;;;;4990694;28;20452;-69
2021/12/19 11:03:58;;;;;;;6.68;4.28;;;;;;;;;;4996876;28;20038;-70
2021/12/19 11:06:30;;;;;;;5.97;3.38;;;;;;;;;;5000426;28;20058;-68
2021/12/19 11:08:58;;;;;;;5.45;3.20;;;;;;;;;;4990502;28;20110;-71
2021/12/19 11:11:41;;;;;;;8.32;3.35;;;;;;;;;;4991086;28;20113;-72
2021/12/19 11:14:09;;;;;;;4.38;2.63;;;;;;;;;;5029795;28;20049;-72
2021/12/19 11:16:35;;;;;;;5.85;2.95;;;;;;;;;;5029400;28;20041;-70
2021/12/19 11:19:00;;;;;;;6.07;2.95;;;;;;;;;;5029719;28;20376;-70
2021/12/19 11:21:27;;;;;;;3.75;2.50;;;;;;;;;;5029774;28;20030;-71
2021/12/19 11:23:52;;;;;;;5.70;2.83;;;;;;;;;;5029803;28;20646;-67
2021/12/19 11:26:20;;;;;;;6.65;2.67;;;;;;;;;;5029329;28;20087;-72
2021/12/19 11:28:47;;;;;;;4.00;2.53;;;;;;;;;;5029690;28;20026;-72
2021/12/19 11:31:12;;;;;;;5.50;2.90;;;;;;;;;;5029542;28;20116;-72
2021/12/19 11:34:08;;;;;;;4.60;2.58;;;;;;;;;;5029700;28;20130;-69
2021/12/19 11:36:39;;;;;;;5.25;3.00;;;;;;;;;;5029025;28;20025;-70
2021/12/19 11:39:06;;;;;;;5.03;2.70;;;;;;;;;;5032611;28;20038;-72
2021/12/19 11:41:32;;;;;;;5.75;2.75;;;;;;;;;;5029524;28;20731;-72
2021/12/19 11:44:01;;;;;;;5.03;2.70;;;;;;;;;;5031495;28;20084;-72
2021/12/19 11:46:49;;;;;;;6.00;2.60;;;;;;;;;;5031982;28;20652;-70
2021/12/19 11:49:22;;;;;;;5.10;2.78;;;;;;;;;;5029091;28;20025;-68
2021/12/19 11:51:48;;;;;;;5.38;2.90;;;;;;;;;;5029617;28;20435;-70
2021/12/19 11:54:18;;;;;;;8.70;2.95;;;;;;;;;;5029406;28;20497;-68
2021/12/19 11:57:10;;;;;;;3.80;2.45;;;;;;;;;;5029083;28;20159;-69
2021/12/19 11:59:38;;;;;;;4.47;2.40;;;;;;;;;;5028183;28;20113;-69
2021/12/19 12:02:25;;;;;;;5.18;2.67;;;;;;;;;;5029432;28;20024;-69
2021/12/19 12:05:15;;;;;;;4.35;2.42;;;;;;;;;;5029233;28;20026;-68
2021/12/19 12:08:02;;;;;;;5.88;2.47;;;;;;;;;;5029381;28;20113;-72
2021/12/19 12:10:29;;;;;;;3.25;2.10;;;;;;;;;;5030979;28;20035;-70
2021/12/19 12:12:54;;;;;;;3.90;2.25;;;;;;;;;;5031030;28;20052;-70
2021/12/19 12:15:28;;;;;;;4.55;2.42;;;;;;;;;;5031121;28;20302;-71
2021/12/19 12:17:57;;;;;;;4.00;2.20;;;;;;;;;;5031424;28;20477;-70
2021/12/19 12:20:30;;;;;;;4.28;2.30;;;;;;;;;;5031538;28;20032;-71
2021/12/19 12:23:03;;;;;;;3.50;2.20;;;;;;;;;;5031658;28;20033;-68
2021/12/19 12:25:33;;;;;;;4.20;2.20;;;;;;;;;;5031262;28;20033;-70
2021/12/19 12:28:08;;;;;;;3.28;2.05;;;;;;;;;;5041903;28;20056;-72
2021/12/19 12:30:38;;;;;;;4.05;2.22;;;;;;;;;;5038069;28;20033;-70
2021/12/19 12:33:06;;;;;;;4.30;2.20;;;;;;;;;;5032576;28;20030;-71
2021/12/19 12:35:36;;;;;;;3.85;2.03;;;;;;;;;;5032636;28;20018;-71
2021/12/19 12:38:03;;;;;;;3.75;1.95;;;;;;;;;;5036708;28;20087;-71
2021/12/19 12:43:13;;;;;;;;;;;;;;;;;;5032988;28;20496;-69
2021/12/19 12:45:56;;;;;;;3.38;2.00;;;;;;;;;;5032206;28;20290;-72
2021/12/19 12:48:39;;;;;;;4.70;2.20;;;;;;;;;;5031960;28;20022;-70
2021/12/19 12:51:26;;;;;;;4.72;2.45;;;;;;;;;;5032391;28;20037;-67
2021/12/19 12:53:55;;;;;;;5.63;2.00;;;;;;;;;;5028074;28;20088;-67
2021/12/19 12:56:27;;;;;;;3.60;1.83;;;;;;;;;;5032005;28;20017;-66
2021/12/19 12:58:55;;;;;;;2.03;1.30;;;;;;;;;;5031837;28;20116;-68
2021/12/19 13:01:25;;;;;;;3.58;1.73;;;;;;;;;;5032113;28;20484;-68
2021/12/19 13:04:02;;;;;;;3.70;1.80;;;;;;;;;;5032088;28;20065;-68
2021/12/19 13:06:41;;;;;;;2.65;1.60;;;;;;;;;;5031823;28;20040;-68
2021/12/19 13:09:18;;;;;;;3.45;1.60;;;;;;;;;;5031910;28;20025;-67
2021/12/19 13:11:46;;;;;;;4.03;1.52;;;;;;;;;;5031601;28;20397;-67
2021/12/19 13:14:24;;;;;;;3.00;1.80;;;;;;;;;;5032031;28;20445;-67
2021/12/19 13:16:55;;;;;;;2.65;1.63;;;;;;;;;;5031544;28;20021;-68
2021/12/19 13:19:41;;;;;;;3.33;1.60;;;;;;;;;;5031313;28;20033;-68
2021/12/19 13:22:14;;;;;;;3.10;1.73;;;;;;;;;;5031631;28;20019;-67
2021/12/19 13:24:41;;;;;;;3.00;1.80;;;;;;;;;;5031465;28;20519;-68
2021/12/19 13:27:06;;;;;;;3.95;1.88;;;;;;;;;;5031468;28;20032;-68
2021/12/19 13:29:32;;;;;;;3.78;1.77;;;;;;;;;;5031332;28;20104;-67
2021/12/19 13:32:26;;;;;;;3.75;1.77;;;;;;;;;;5031561;28;20060;-70
2021/12/19 13:34:52;;;;;;;4.07;1.75;;;;;;;;;;5031472;28;20027;-67
2021/12/19 13:37:19;;;;;;;3.08;1.80;;;;;;;;;;5032302;28;20049;-71
2021/12/19 13:39:56;;;;;;;2.97;1.70;;;;;;;;;;5032416;28;20043;-74
2021/12/19 13:42:22;;;;;;;3.72;1.90;;;;;;;;;;5031250;28;20508;-68
2021/12/19 13:44:48;;;;;;;5.35;2.10;;;;;;;;;;5031166;28;20088;-68
2021/12/19 13:47:23;;;;;;;5.05;2.20;;;;;;;;;;5030815;28;20021;-66
2021/12/19 13:49:49;;;;;;;3.90;2.10;;;;;;;;;;5031246;28;20542;-66
2021/12/19 13:52:15;;;;;;;4.00;2.15;;;;;;;;;;5031192;28;20104;-66
2021/12/19 13:54:41;;;;;;;3.85;2.00;;;;;;;;;;5030947;28;20021;-67
2021/12/19 13:57:21;;;;;;;5.13;2.20;;;;;;;;;;5029084;28;20033;-67
2021/12/19 13:59:47;;;;;;;11.15;4.60;;;;;;;;;;5030756;28;20030;-66
2021/12/19 14:02:13;;;;;;;6.15;3.30;;;;;;;;;;5030780;28;20536;-68
2021/12/19 14:04:39;;;;;;;5.88;3.10;;;;;;;;;;5030850;28;20112;-68
2021/12/19 14:07:10;;;;;;;6.38;3.47;;;;;;;;;;5029139;28;20390;-66
2021/12/19 14:09:41;;;;;;;6.03;2.75;;;;;;;;;;5028902;28;20523;-66
2021/12/19 14:12:38;;;;;;;5.90;2.90;;;;;;;;;;5028676;28;20045;-67
2021/12/19 14:15:15;;;;;;;3.78;2.50;;;;;;;;;;5029029;28;20167;-67
2021/12/19 14:17:40;;;;;;;6.88;2.95;;;;;;;;;;5039111;28;20021;-66
2021/12/19 14:20:06;;;;;;;5.75;2.75;;;;;;;;;;5029080;28;20032;-66
2021/12/19 14:22:32;;;;;;;4.47;2.53;;;;;;;;;;5029175;28;20037;-67
2021/12/19 14:24:59;;;;;;;6.75;2.92;;;;;;;;;;5028884;28;20477;-67
2021/12/19 14:27:38;;;;;;;5.03;2.55;;;;;;;;;;5012605;28;20519;-67
2021/12/19 14:30:07;;;;;;;4.95;2.55;;;;;;;;;;5030181;28;20022;-75
2021/12/19 14:32:51;;;;;;;4.10;2.60;;;;;;;;;;5030014;28;20032;-67
2021/12/19 14:35:21;;;;;;;4.50;2.42;;;;;;;;;;5030327;28;20163;-74
2021/12/19 14:37:50;;;;;;;4.57;2.58;;;;;;;;;;5035421;28;20029;-73
2021/12/19 14:40:37;;;;;;;3.70;2.50;;;;;;;;;;5030402;28;20029;-74
2021/12/19 14:43:12;;;;;;;5.15;2.45;;;;;;;;;;5030153;28;20124;-67
2021/12/19 14:45:53;;;;;;;5.00;2.50;;;;;;;;;;5029921;28;20445;-73
2021/12/19 14:48:39;;;;;;;4.57;2.72;;;;;;;;;;5029713;28;20026;-69
2021/12/19 14:51:11;;;;;;;4.80;2.70;;;;;;;;;;5030280;28;20033;-75
2021/12/19 14:53:45;;;;;;;4.45;2.53;;;;;;;;;;5030029;28;20600;-75
2021/12/19 14:56:24;;;;;;;4.75;2.60;;;;;;;;;;5029752;28;20026;-73
2021/12/19 14:58:55;;;;;;;4.82;2.63;;;;;;;;;;5029518;28;20026;-71
2021/12/19 15:01:23;;;;;;;;;;;;;;;;;;5030409;28;20033;-69
2021/12/19 15:03:55;;;;;;;7.22;3.67;;;;;;;;;;5029515;28;19936;-73
2021/12/19 15:06:23;;;;;;;5.47;2.75;;;;;;;;;;5029889;28;20056;-71
2021/12/19 15:08:50;;;;;;;7.28;3.50;;;;;;;;;;5029385;28;20488;-74
2021/12/19 15:11:16;;;;;;;4.82;3.20;;;;;;;;;;5028384;28;20512;-73
2021/12/19 15:13:42;;;;;;;8.00;3.60;;;;;;;;;;5029325;28;20048;-68
2021/12/19 15:16:08;;;;;;;5.00;2.88;;;;;;;;;;5029783;28;20516;-72
2021/12/19 15:18:35;;;;;;;7.25;3.63;;;;;;;;;;5029465;28;20060;-70
2021/12/19 15:21:02;;;;;;;5.72;3.00;;;;;;;;;;5029628;28;20117;-72
2021/12/19 15:23:27;;;;;;;7.45;3.17;;;;;;;;;;5012192;28;20447;-72
2021/12/19 15:25:53;;;;;;;6.13;2.90;;;;;;;;;;5029781;28;20113;-75
2021/12/19 15:28:22;;;;;;;5.30;3.00;;;;;;;;;;5029480;28;20021;-75
2021/12/19 15:30:54;;;;;;;6.25;3.30;;;;;;;;;;5029821;28;20163;-75
2021/12/19 15:33:21;;;;;;;5.15;3.22;;;;;;;;;;5029627;28;20044;-70
2021/12/19 15:35:48;;;;;;;6.32;3.15;;;;;;;;;;5029661;28;20124;-72
2021/12/19 15:38:14;;;;;;;8.50;3.53;;;;;;;;;;5034131;28;20040;-76
2021/12/19 15:40:40;;;;;;;5.15;2.95;;;;;;;;;;5029562;28;20029;-75
2021/12/19 15:43:05;;;;;;;6.32;3.63;;;;;;;;;;5032264;28;20029;-76
2021/12/19 15:45:32;;;;;;;6.15;3.50;;;;;;;;;;5033416;28;20037;-74
2021/12/19 15:47:59;;;;;;;7.63;3.90;;;;;;;;;;5034017;28;20621;-74
2021/12/19 15:50:24;;;;;;;9.25;4.68;;;;;;;;;;5033176;28;20175;-75
2021/12/19 15:52:50;;;;;;;6.63;4.20;;;;;;;;;;5033215;28;20483;-75
2021/12/19 15:55:16;;;;;;;10.38;5.53;;;;;;;;;;5032988;28;20022;-75